sensor_id;sensor_type;location;lat;lon;timestamp;P1;durP1;ratioP1;P2;durP2;ratioP2
16177;SDS011;8195;51.220;9.746;2023-04-24T00:02:59;1.93;;;1.80;;
16177;SDS011;8195;51.220;9.746;2023-04-24T00:13:22;1.63;;;1.50;;
16177;SDS011;8195;51.220;9.746;2023-04-24T00:23:43;1.70;;;1.60;;
16177;SDS011;8195;51.220;9.746;2023-04-24T00:34:17;1.30;;;1.20;;
16177;SDS011;8195;51.220;9.746;2023-04-24T00:44:38;1.20;;;1.03;;
16177;SDS011;8195;51.220;9.746;2023-04-24T00:54:59;2.07;;;1.47;;
16177;SDS011;8195;51.220;9.746;2023-04-24T01:05:29;2.17;;;1.30;;
16177;SDS011;8195;51.220;9.746;2023-04-24T01:15:50;1.50;;;1.40;;
16177;SDS011;8195;51.220;9.746;2023-04-24T01:26:28;1.40;;;1.20;;
16177;SDS011;8195;51.220;9.746;2023-04-24T01:36:59;1.50;;;1.40;;
16177;SDS011;8195;51.220;9.746;2023-04-24T01:47:26;1.70;;;1.60;;
16177;SDS011;8195;51.220;9.746;2023-04-24T01:57:47;3.20;;;2.20;;
16177;SDS011;8195;51.220;9.746;2023-04-24T02:08:28;3.10;;;1.87;;
16177;SDS011;8195;51.220;9.746;2023-04-24T02:19:02;2.70;;;2.50;;
16177;SDS011;8195;51.220;9.746;2023-04-24T02:40:32;3.00;;;2.70;;
16177;SDS011;8195;51.220;9.746;2023-04-24T02:50:55;3.33;;;3.03;;
16177;SDS011;8195;51.220;9.746;2023-04-24T03:01:37;3.33;;;2.87;;
16177;SDS011;8195;51.220;9.746;2023-04-24T03:11:58;3.13;;;2.90;;
16177;SDS011;8195;51.220;9.746;2023-04-24T03:22:19;3.30;;;3.10;;
16177;SDS011;8195;51.220;9.746;2023-04-24T03:32:43;3.27;;;3.07;;
16177;SDS011;8195;51.220;9.746;2023-04-24T03:43:04;3.10;;;2.90;;
16177;SDS011;8195;51.220;9.746;2023-04-24T03:53:25;2.97;;;2.77;;
16177;SDS011;8195;51.220;9.746;2023-04-24T04:03:53;3.57;;;2.97;;
16177;SDS011;8195;51.220;9.746;2023-04-24T04:14:14;3.03;;;2.83;;
16177;SDS011;8195;51.220;9.746;2023-04-24T04:24:47;2.70;;;2.50;;
16177;SDS011;8195;51.220;9.746;2023-04-24T04:46:26;2.07;;;1.97;;
16177;SDS011;8195;51.220;9.746;2023-04-24T04:56:52;2.67;;;2.07;;
16177;SDS011;8195;51.220;9.746;2023-04-24T05:07:23;2.27;;;2.07;;
16177;SDS011;8195;51.220;9.746;2023-04-24T05:17:46;2.10;;;2.00;;
16177;SDS011;8195;51.220;9.746;2023-04-24T05:28:07;2.07;;;1.97;;
16177;SDS011;8195;51.220;9.746;2023-04-24T05:38:28;2.43;;;2.30;;
16177;SDS011;8195;51.220;9.746;2023-04-24T05:48:49;3.90;;;3.10;;
16177;SDS011;8195;51.220;9.746;2023-04-24T05:59:13;3.10;;;2.90;;
16177;SDS011;8195;51.220;9.746;2023-04-24T06:10:02;3.43;;;3.23;;
16177;SDS011;8195;51.220;9.746;2023-04-24T06:20:23;3.07;;;2.87;;
16177;SDS011;8195;51.220;9.746;2023-04-24T06:30:45;3.80;;;3.50;;
16177;SDS011;8195;51.220;9.746;2023-04-24T06:41:06;3.90;;;3.60;;
16177;SDS011;8195;51.220;9.746;2023-04-24T06:51:27;3.43;;;3.23;;
16177;SDS011;8195;51.220;9.746;2023-04-24T07:01:54;3.57;;;3.27;;
16177;SDS011;8195;51.220;9.746;2023-04-24T07:22:55;5.17;;;4.63;;
16177;SDS011;8195;51.220;9.746;2023-04-24T07:33:22;4.50;;;4.17;;
16177;SDS011;8195;51.220;9.746;2023-04-24T07:43:43;4.07;;;3.77;;
16177;SDS011;8195;51.220;9.746;2023-04-24T07:54:05;5.20;;;4.70;;
16177;SDS011;8195;51.220;9.746;2023-04-24T08:04:25;5.53;;;5.03;;
16177;SDS011;8195;51.220;9.746;2023-04-24T08:14:46;5.40;;;4.90;;
16177;SDS011;8195;51.220;9.746;2023-04-24T08:25:07;4.80;;;4.40;;
16177;SDS011;8195;51.220;9.746;2023-04-24T08:35:39;5.33;;;4.93;;
16177;SDS011;8195;51.220;9.746;2023-04-24T08:46:00;5.13;;;4.70;;
16177;SDS011;8195;51.220;9.746;2023-04-24T08:56:27;5.63;;;5.13;;
16177;SDS011;8195;51.220;9.746;2023-04-24T09:06:57;5.30;;;4.80;;
16177;SDS011;8195;51.220;9.746;2023-04-24T09:17:32;4.60;;;4.20;;
16177;SDS011;8195;51.220;9.746;2023-04-24T09:28:04;5.47;;;5.00;;
16177;SDS011;8195;51.220;9.746;2023-04-24T09:38:40;5.63;;;4.53;;
16177;SDS011;8195;51.220;9.746;2023-04-24T09:49:08;5.23;;;4.80;;
16177;SDS011;8195;51.220;9.746;2023-04-24T09:59:30;6.10;;;5.60;;
16177;SDS011;8195;51.220;9.746;2023-04-24T10:09:51;5.57;;;5.07;;
16177;SDS011;8195;51.220;9.746;2023-04-24T10:31:16;5.37;;;4.90;;
16177;SDS011;8195;51.220;9.746;2023-04-24T10:41:41;4.40;;;4.10;;
16177;SDS011;8195;51.220;9.746;2023-04-24T10:52:44;4.17;;;3.87;;
16177;SDS011;8195;51.220;9.746;2023-04-24T11:03:22;5.20;;;4.80;;
16177;SDS011;8195;51.220;9.746;2023-04-24T11:34:52;3.90;;;3.60;;
16177;SDS011;8195;51.220;9.746;2023-04-24T11:45:15;2.47;;;2.27;;
16177;SDS011;8195;51.220;9.746;2023-04-24T11:55:39;1.23;;;1.13;;
16177;SDS011;8195;51.220;9.746;2023-04-24T12:06:26;1.50;;;1.10;;
16177;SDS011;8195;51.220;9.746;2023-04-24T12:16:48;0.70;;;0.70;;
16177;SDS011;8195;51.220;9.746;2023-04-24T12:27:18;2.00;;;0.57;;
16177;SDS011;8195;51.220;9.746;2023-04-24T12:38:12;0.70;;;0.70;;
16177;SDS011;8195;51.220;9.746;2023-04-24T12:48:43;1.07;;;1.00;;
16177;SDS011;8195;51.220;9.746;2023-04-24T12:59:04;1.10;;;1.10;;
16177;SDS011;8195;51.220;9.746;2023-04-24T13:09:25;1.10;;;1.10;;
16177;SDS011;8195;51.220;9.746;2023-04-24T13:19:45;1.20;;;1.20;;
16177;SDS011;8195;51.220;9.746;2023-04-24T13:30:07;1.37;;;1.30;;
16177;SDS011;8195;51.220;9.746;2023-04-24T13:40:28;1.30;;;1.10;;
16177;SDS011;8195;51.220;9.746;2023-04-24T13:50:49;1.10;;;0.90;;
16177;SDS011;8195;51.220;9.746;2023-04-24T14:01:19;1.10;;;1.10;;
16177;SDS011;8195;51.220;9.746;2023-04-24T14:11:43;1.90;;;1.80;;
16177;SDS011;8195;51.220;9.746;2023-04-24T14:22:05;1.90;;;1.80;;
16177;SDS011;8195;51.220;9.746;2023-04-24T14:32:40;1.20;;;1.20;;
16177;SDS011;8195;51.220;9.746;2023-04-24T14:43:13;1.80;;;1.70;;
16177;SDS011;8195;51.220;9.746;2023-04-24T14:53:37;1.70;;;1.60;;
16177;SDS011;8195;51.220;9.746;2023-04-24T15:04:18;2.27;;;1.90;;
16177;SDS011;8195;51.220;9.746;2023-04-24T15:14:39;3.50;;;3.20;;
16177;SDS011;8195;51.220;9.746;2023-04-24T15:25:00;3.97;;;3.63;;
16177;SDS011;8195;51.220;9.746;2023-04-24T15:35:22;3.80;;;3.47;;
16177;SDS011;8195;51.220;9.746;2023-04-24T15:55:56;5.20;;;4.70;;
16177;SDS011;8195;51.220;9.746;2023-04-24T16:06:17;5.57;;;5.07;;
16177;SDS011;8195;51.220;9.746;2023-04-24T16:16:38;4.80;;;4.30;;
16177;SDS011;8195;51.220;9.746;2023-04-24T16:26:59;4.77;;;4.00;;
16177;SDS011;8195;51.220;9.746;2023-04-24T16:37:20;5.83;;;5.33;;
16177;SDS011;8195;51.220;9.746;2023-04-24T16:47:41;5.57;;;5.07;;
16177;SDS011;8195;51.220;9.746;2023-04-24T16:58:02;6.80;;;6.20;;
16177;SDS011;8195;51.220;9.746;2023-04-24T17:08:23;4.20;;;3.80;;
16177;SDS011;8195;51.220;9.746;2023-04-24T17:18:44;3.30;;;2.93;;
16177;SDS011;8195;51.220;9.746;2023-04-24T17:29:05;6.27;;;5.77;;
16177;SDS011;8195;51.220;9.746;2023-04-24T17:39:26;4.37;;;3.97;;
16177;SDS011;8195;51.220;9.746;2023-04-24T17:49:47;3.57;;;3.27;;
16177;SDS011;8195;51.220;9.746;2023-04-24T18:00:08;5.17;;;3.40;;
16177;SDS011;8195;51.220;9.746;2023-04-24T18:10:30;3.60;;;3.30;;
16177;SDS011;8195;51.220;9.746;2023-04-24T18:20:53;4.50;;;3.90;;
16177;SDS011;8195;51.220;9.746;2023-04-24T18:31:20;6.20;;;5.67;;
16177;SDS011;8195;51.220;9.746;2023-04-24T18:42:08;5.10;;;4.70;;
16177;SDS011;8195;51.220;9.746;2023-04-24T18:52:38;6.13;;;4.07;;
16177;SDS011;8195;51.220;9.746;2023-04-24T19:02:59;4.13;;;3.80;;
16177;SDS011;8195;51.220;9.746;2023-04-24T19:13:20;5.53;;;3.93;;
16177;SDS011;8195;51.220;9.746;2023-04-24T19:23:41;3.50;;;3.23;;
16177;SDS011;8195;51.220;9.746;2023-04-24T19:34:02;3.67;;;3.03;;
16177;SDS011;8195;51.220;9.746;2023-04-24T19:44:23;3.27;;;3.07;;
16177;SDS011;8195;51.220;9.746;2023-04-24T19:54:44;4.57;;;4.10;;
16177;SDS011;8195;51.220;9.746;2023-04-24T20:05:05;4.83;;;4.40;;
16177;SDS011;8195;51.220;9.746;2023-04-24T20:15:26;5.13;;;4.63;;
16177;SDS011;8195;51.220;9.746;2023-04-24T20:25:47;4.20;;;3.80;;
16177;SDS011;8195;51.220;9.746;2023-04-24T20:36:08;6.20;;;5.60;;
16177;SDS011;8195;51.220;9.746;2023-04-24T20:46:29;4.57;;;4.17;;
16177;SDS011;8195;51.220;9.746;2023-04-24T20:56:50;6.13;;;4.40;;
16177;SDS011;8195;51.220;9.746;2023-04-24T21:07:11;6.07;;;4.37;;
16177;SDS011;8195;51.220;9.746;2023-04-24T21:17:32;5.20;;;4.73;;
16177;SDS011;8195;51.220;9.746;2023-04-24T21:27:53;5.70;;;5.17;;
16177;SDS011;8195;51.220;9.746;2023-04-24T21:38:14;5.57;;;5.13;;
16177;SDS011;8195;51.220;9.746;2023-04-24T21:48:35;6.50;;;5.90;;
16177;SDS011;8195;51.220;9.746;2023-04-24T21:58:56;6.10;;;5.57;;
16177;SDS011;8195;51.220;9.746;2023-04-24T22:09:17;6.63;;;6.03;;
16177;SDS011;8195;51.220;9.746;2023-04-24T22:19:38;6.23;;;5.73;;
16177;SDS011;8195;51.220;9.746;2023-04-24T22:29:59;7.20;;;6.07;;
16177;SDS011;8195;51.220;9.746;2023-04-24T22:40:21;6.60;;;5.97;;
16177;SDS011;8195;51.220;9.746;2023-04-24T22:50:42;7.83;;;5.77;;
16177;SDS011;8195;51.220;9.746;2023-04-24T23:01:03;6.43;;;5.83;;
16177;SDS011;8195;51.220;9.746;2023-04-24T23:11:24;7.77;;;6.53;;
16177;SDS011;8195;51.220;9.746;2023-04-24T23:21:45;7.37;;;6.40;;
16177;SDS011;8195;51.220;9.746;2023-04-24T23:32:06;7.57;;;6.70;;
16177;SDS011;8195;51.220;9.746;2023-04-24T23:42:27;9.77;;;6.17;;
16177;SDS011;8195;51.220;9.746;2023-04-24T23:52:48;7.10;;;6.50;;
